sensor_id;sensor_type;location;lat;lon;timestamp;P1;durP1;ratioP1;P2;durP2;ratioP2
1837;SDS011;918;50.796;6.772;2022-09-12T00:01:34;14.50;;;13.40;;
1837;SDS011;918;50.796;6.772;2022-09-12T00:03:59;15.50;;;13.90;;
1837;SDS011;918;50.796;6.772;2022-09-12T00:06:27;14.80;;;13.60;;
1837;SDS011;918;50.796;6.772;2022-09-12T00:08:55;14.33;;;13.17;;
1837;SDS011;918;50.796;6.772;2022-09-12T00:11:22;16.47;;;15.07;;
1837;SDS011;918;50.796;6.772;2022-09-12T00:13:48;16.63;;;15.20;;
1837;SDS011;918;50.796;6.772;2022-09-12T00:16:18;16.47;;;15.07;;
1837;SDS011;918;50.796;6.772;2022-09-12T00:18:48;16.47;;;15.07;;
1837;SDS011;918;50.796;6.772;2022-09-12T00:21:14;16.57;;;15.07;;
1837;SDS011;918;50.796;6.772;2022-09-12T00:23:40;16.70;;;15.33;;
1837;SDS011;918;50.796;6.772;2022-09-12T00:26:06;17.37;;;15.97;;
1837;SDS011;918;50.796;6.772;2022-09-12T00:28:32;18.57;;;16.80;;
1837;SDS011;918;50.796;6.772;2022-09-12T00:30:58;16.50;;;15.20;;
1837;SDS011;918;50.796;6.772;2022-09-12T00:33:24;17.23;;;15.70;;
1837;SDS011;918;50.796;6.772;2022-09-12T00:35:50;16.70;;;15.20;;
1837;SDS011;918;50.796;6.772;2022-09-12T00:38:19;15.87;;;14.53;;
1837;SDS011;918;50.796;6.772;2022-09-12T00:40:45;17.90;;;16.37;;
1837;SDS011;918;50.796;6.772;2022-09-12T00:43:14;16.37;;;14.97;;
1837;SDS011;918;50.796;6.772;2022-09-12T00:46:00;17.30;;;15.73;;
1837;SDS011;918;50.796;6.772;2022-09-12T00:48:31;18.20;;;16.60;;
1837;SDS011;918;50.796;6.772;2022-09-12T00:50:59;17.97;;;16.17;;
1837;SDS011;918;50.796;6.772;2022-09-12T00:53:24;17.60;;;16.00;;
1837;SDS011;918;50.796;6.772;2022-09-12T00:55:50;17.33;;;15.63;;
1837;SDS011;918;50.796;6.772;2022-09-12T00:58:30;16.30;;;15.00;;
1837;SDS011;918;50.796;6.772;2022-09-12T01:01:05;16.83;;;15.33;;
1837;SDS011;918;50.796;6.772;2022-09-12T01:03:30;16.97;;;15.47;;
1837;SDS011;918;50.796;6.772;2022-09-12T01:06:39;16.83;;;15.30;;
1837;SDS011;918;50.796;6.772;2022-09-12T01:08:51;17.47;;;15.97;;
1837;SDS011;918;50.796;6.772;2022-09-12T01:11:18;17.43;;;15.93;;
1837;SDS011;918;50.796;6.772;2022-09-12T01:13:45;16.00;;;14.70;;
1837;SDS011;918;50.796;6.772;2022-09-12T01:16:10;16.43;;;14.93;;
1837;SDS011;918;50.796;6.772;2022-09-12T01:21:22;17.33;;;15.70;;
1837;SDS011;918;50.796;6.772;2022-09-12T01:35:13;15.77;;;14.37;;
1837;SDS011;918;50.796;6.772;2022-09-12T01:37:51;16.27;;;14.87;;
1837;SDS011;918;50.796;6.772;2022-09-12T01:40:33;17.63;;;16.17;;
1837;SDS011;918;50.796;6.772;2022-09-12T01:45:54;16.77;;;15.37;;
1837;SDS011;918;50.796;6.772;2022-09-12T01:48:29;17.47;;;15.90;;
1837;SDS011;918;50.796;6.772;2022-09-12T01:53:43;17.50;;;15.80;;
1837;SDS011;918;50.796;6.772;2022-09-12T01:56:18;18.30;;;16.60;;
1837;SDS011;918;50.796;6.772;2022-09-12T02:01:45;17.43;;;15.73;;
1837;SDS011;918;50.796;6.772;2022-09-12T02:04:18;16.87;;;15.33;;
1837;SDS011;918;50.796;6.772;2022-09-12T02:06:47;17.17;;;15.57;;
1837;SDS011;918;50.796;6.772;2022-09-12T02:09:18;18.37;;;16.77;;
1837;SDS011;918;50.796;6.772;2022-09-12T02:11:46;19.30;;;17.50;;
1837;SDS011;918;50.796;6.772;2022-09-12T02:14:16;17.77;;;16.17;;
1837;SDS011;918;50.796;6.772;2022-09-12T02:16:48;17.40;;;15.80;;
1837;SDS011;918;50.796;6.772;2022-09-12T02:19:27;17.30;;;15.50;;
1837;SDS011;918;50.796;6.772;2022-09-12T02:21:59;16.90;;;15.40;;
1837;SDS011;918;50.796;6.772;2022-09-12T02:24:34;18.07;;;16.17;;
1837;SDS011;918;50.796;6.772;2022-09-12T02:27:03;18.13;;;16.63;;
1837;SDS011;918;50.796;6.772;2022-09-12T02:29:31;17.27;;;15.77;;
1837;SDS011;918;50.796;6.772;2022-09-12T02:31:57;16.83;;;15.40;;
1837;SDS011;918;50.796;6.772;2022-09-12T02:37:24;17.10;;;15.60;;
1837;SDS011;918;50.796;6.772;2022-09-12T02:40:02;16.43;;;15.13;;
1837;SDS011;918;50.796;6.772;2022-09-12T02:42:27;17.93;;;16.33;;
1837;SDS011;918;50.796;6.772;2022-09-12T02:44:53;18.20;;;16.60;;
1837;SDS011;918;50.796;6.772;2022-09-12T02:47:27;16.90;;;15.40;;
1837;SDS011;918;50.796;6.772;2022-09-12T02:49:55;16.70;;;15.10;;
1837;SDS011;918;50.796;6.772;2022-09-12T02:52:20;16.60;;;15.10;;
1837;SDS011;918;50.796;6.772;2022-09-12T02:54:46;17.23;;;15.63;;
1837;SDS011;918;50.796;6.772;2022-09-12T02:57:15;17.40;;;15.83;;
1837;SDS011;918;50.796;6.772;2022-09-12T02:59:41;16.00;;;14.60;;
1837;SDS011;918;50.796;6.772;2022-09-12T03:10:27;18.10;;;16.37;;
1837;SDS011;918;50.796;6.772;2022-09-12T03:15:50;17.87;;;16.27;;
1837;SDS011;918;50.796;6.772;2022-09-12T03:21:10;17.37;;;15.73;;
1837;SDS011;918;50.796;6.772;2022-09-12T03:23:43;18.30;;;16.70;;
1837;SDS011;918;50.796;6.772;2022-09-12T03:26:25;17.13;;;15.47;;
1837;SDS011;918;50.796;6.772;2022-09-12T03:28:56;16.80;;;15.23;;
1837;SDS011;918;50.796;6.772;2022-09-12T03:31:23;17.57;;;15.87;;
1837;SDS011;918;50.796;6.772;2022-09-12T03:33:49;18.37;;;16.67;;
1837;SDS011;918;50.796;6.772;2022-09-12T03:36:24;17.70;;;15.90;;
1837;SDS011;918;50.796;6.772;2022-09-12T03:38:51;17.70;;;16.00;;
1837;SDS011;918;50.796;6.772;2022-09-12T03:41:17;17.50;;;15.90;;
1837;SDS011;918;50.796;6.772;2022-09-12T03:43:42;17.37;;;15.40;;
1837;SDS011;918;50.796;6.772;2022-09-12T03:46:07;18.23;;;16.47;;
1837;SDS011;918;50.796;6.772;2022-09-12T03:48:33;18.37;;;16.63;;
1837;SDS011;918;50.796;6.772;2022-09-12T03:50:59;18.00;;;16.30;;
1837;SDS011;918;50.796;6.772;2022-09-12T03:53:28;18.80;;;17.00;;
1837;SDS011;918;50.796;6.772;2022-09-12T03:55:53;16.97;;;15.43;;
1837;SDS011;918;50.796;6.772;2022-09-12T03:58:18;18.57;;;16.87;;
1837;SDS011;918;50.796;6.772;2022-09-12T04:00:44;17.87;;;16.20;;
1837;SDS011;918;50.796;6.772;2022-09-12T04:03:09;17.67;;;16.07;;
1837;SDS011;918;50.796;6.772;2022-09-12T04:05:34;18.10;;;16.40;;
1837;SDS011;918;50.796;6.772;2022-09-12T04:08:00;17.77;;;16.00;;
1837;SDS011;918;50.796;6.772;2022-09-12T04:10:26;16.90;;;15.40;;
1837;SDS011;918;50.796;6.772;2022-09-12T04:12:51;19.13;;;17.53;;
1837;SDS011;918;50.796;6.772;2022-09-12T04:15:17;17.33;;;15.73;;
1837;SDS011;918;50.796;6.772;2022-09-12T04:17:42;17.07;;;15.47;;
1837;SDS011;918;50.796;6.772;2022-09-12T04:20:07;19.20;;;17.43;;
1837;SDS011;918;50.796;6.772;2022-09-12T04:22:33;21.67;;;19.67;;
1837;SDS011;918;50.796;6.772;2022-09-12T04:24:58;22.50;;;20.30;;
1837;SDS011;918;50.796;6.772;2022-09-12T04:27:23;22.33;;;20.23;;
1837;SDS011;918;50.796;6.772;2022-09-12T04:29:48;18.63;;;17.07;;
1837;SDS011;918;50.796;6.772;2022-09-12T04:32:14;18.90;;;17.20;;
1837;SDS011;918;50.796;6.772;2022-09-12T04:34:39;18.97;;;16.97;;
1837;SDS011;918;50.796;6.772;2022-09-12T04:37:04;18.00;;;16.13;;
1837;SDS011;918;50.796;6.772;2022-09-12T04:39:29;18.90;;;17.20;;
1837;SDS011;918;50.796;6.772;2022-09-12T04:41:55;17.93;;;16.23;;
1837;SDS011;918;50.796;6.772;2022-09-12T04:44:20;17.33;;;15.93;;
1837;SDS011;918;50.796;6.772;2022-09-12T04:46:46;16.83;;;15.33;;
1837;SDS011;918;50.796;6.772;2022-09-12T04:49:11;19.60;;;17.70;;
1837;SDS011;918;50.796;6.772;2022-09-12T04:51:38;17.43;;;16.03;;
1837;SDS011;918;50.796;6.772;2022-09-12T04:54:10;17.50;;;15.83;;
1837;SDS011;918;50.796;6.772;2022-09-12T04:56:38;17.67;;;16.07;;
1837;SDS011;918;50.796;6.772;2022-09-12T04:59:05;18.00;;;16.27;;
1837;SDS011;918;50.796;6.772;2022-09-12T05:01:30;17.67;;;16.07;;
1837;SDS011;918;50.796;6.772;2022-09-12T05:03:56;17.47;;;15.97;;
1837;SDS011;918;50.796;6.772;2022-09-12T05:06:23;18.87;;;17.30;;
1837;SDS011;918;50.796;6.772;2022-09-12T05:08:50;17.70;;;16.20;;
1837;SDS011;918;50.796;6.772;2022-09-12T05:11:17;17.80;;;16.10;;
1837;SDS011;918;50.796;6.772;2022-09-12T05:13:44;23.40;;;21.27;;
1837;SDS011;918;50.796;6.772;2022-09-12T05:16:10;27.43;;;25.23;;
1837;SDS011;918;50.796;6.772;2022-09-12T05:18:37;21.60;;;19.70;;
1837;SDS011;918;50.796;6.772;2022-09-12T05:21:03;19.00;;;17.30;;
1837;SDS011;918;50.796;6.772;2022-09-12T05:23:30;18.47;;;16.67;;
1837;SDS011;918;50.796;6.772;2022-09-12T05:25:56;19.20;;;17.30;;
1837;SDS011;918;50.796;6.772;2022-09-12T05:28:23;19.20;;;17.30;;
1837;SDS011;918;50.796;6.772;2022-09-12T05:31:03;17.97;;;16.20;;
1837;SDS011;918;50.796;6.772;2022-09-12T05:33:30;17.87;;;16.30;;
1837;SDS011;918;50.796;6.772;2022-09-12T05:35:55;17.40;;;15.70;;
1837;SDS011;918;50.796;6.772;2022-09-12T05:38:21;17.83;;;15.80;;
1837;SDS011;918;50.796;6.772;2022-09-12T05:40:48;16.87;;;15.30;;
1837;SDS011;918;50.796;6.772;2022-09-12T05:43:14;17.50;;;15.80;;
1837;SDS011;918;50.796;6.772;2022-09-12T05:45:40;17.73;;;16.00;;
1837;SDS011;918;50.796;6.772;2022-09-12T05:48:06;16.60;;;15.10;;
1837;SDS011;918;50.796;6.772;2022-09-12T05:50:31;15.63;;;14.27;;
1837;SDS011;918;50.796;6.772;2022-09-12T05:52:56;16.70;;;15.10;;
1837;SDS011;918;50.796;6.772;2022-09-12T05:55:22;16.33;;;14.87;;
1837;SDS011;918;50.796;6.772;2022-09-12T05:57:48;17.27;;;15.57;;
1837;SDS011;918;50.796;6.772;2022-09-12T06:00:14;15.20;;;13.80;;
1837;SDS011;918;50.796;6.772;2022-09-12T06:02:39;16.10;;;14.70;;
1837;SDS011;918;50.796;6.772;2022-09-12T06:05:05;16.13;;;14.63;;
1837;SDS011;918;50.796;6.772;2022-09-12T06:07:30;15.20;;;13.80;;
1837;SDS011;918;50.796;6.772;2022-09-12T06:09:56;15.23;;;13.83;;
1837;SDS011;918;50.796;6.772;2022-09-12T06:12:23;16.50;;;14.80;;
1837;SDS011;918;50.796;6.772;2022-09-12T06:14:50;15.07;;;13.67;;
1837;SDS011;918;50.796;6.772;2022-09-12T06:17:16;15.30;;;13.90;;
1837;SDS011;918;50.796;6.772;2022-09-12T06:19:41;16.57;;;14.97;;
1837;SDS011;918;50.796;6.772;2022-09-12T06:22:06;14.43;;;13.17;;
1837;SDS011;918;50.796;6.772;2022-09-12T06:24:32;16.37;;;14.87;;
1837;SDS011;918;50.796;6.772;2022-09-12T06:26:57;14.80;;;13.60;;
1837;SDS011;918;50.796;6.772;2022-09-12T06:29:22;14.40;;;13.13;;
1837;SDS011;918;50.796;6.772;2022-09-12T06:31:48;13.70;;;12.50;;
1837;SDS011;918;50.796;6.772;2022-09-12T06:34:14;14.90;;;13.60;;
1837;SDS011;918;50.796;6.772;2022-09-12T06:36:41;15.67;;;14.30;;
1837;SDS011;918;50.796;6.772;2022-09-12T06:39:17;13.30;;;12.00;;
1837;SDS011;918;50.796;6.772;2022-09-12T06:41:43;13.50;;;12.30;;
1837;SDS011;918;50.796;6.772;2022-09-12T06:44:13;15.77;;;14.13;;
1837;SDS011;918;50.796;6.772;2022-09-12T06:46:43;14.03;;;12.93;;
1837;SDS011;918;50.796;6.772;2022-09-12T06:49:09;15.43;;;13.87;;
1837;SDS011;918;50.796;6.772;2022-09-12T06:51:34;14.93;;;13.60;;
1837;SDS011;918;50.796;6.772;2022-09-12T06:54:00;15.37;;;13.97;;
1837;SDS011;918;50.796;6.772;2022-09-12T06:56:26;14.93;;;13.43;;
1837;SDS011;918;50.796;6.772;2022-09-12T06:58:52;14.80;;;13.40;;
1837;SDS011;918;50.796;6.772;2022-09-12T07:01:19;15.03;;;13.63;;
1837;SDS011;918;50.796;6.772;2022-09-12T07:03:46;15.83;;;14.33;;
1837;SDS011;918;50.796;6.772;2022-09-12T07:06:14;15.50;;;14.20;;
1837;SDS011;918;50.796;6.772;2022-09-12T07:08:41;14.70;;;13.27;;
1837;SDS011;918;50.796;6.772;2022-09-12T07:11:10;14.73;;;13.33;;
1837;SDS011;918;50.796;6.772;2022-09-12T07:13:36;14.40;;;13.13;;
1837;SDS011;918;50.796;6.772;2022-09-12T07:16:02;13.53;;;12.43;;
1837;SDS011;918;50.796;6.772;2022-09-12T07:18:28;15.13;;;13.73;;
1837;SDS011;918;50.796;6.772;2022-09-12T07:20:53;15.70;;;14.20;;
1837;SDS011;918;50.796;6.772;2022-09-12T07:23:18;13.40;;;12.20;;
1837;SDS011;918;50.796;6.772;2022-09-12T07:25:50;16.20;;;14.73;;
1837;SDS011;918;50.796;6.772;2022-09-12T07:28:16;15.23;;;13.93;;
1837;SDS011;918;50.796;6.772;2022-09-12T07:30:41;16.07;;;14.43;;
1837;SDS011;918;50.796;6.772;2022-09-12T07:33:06;15.50;;;13.90;;
1837;SDS011;918;50.796;6.772;2022-09-12T07:35:32;16.03;;;14.53;;
1837;SDS011;918;50.796;6.772;2022-09-12T07:37:57;15.40;;;13.80;;
1837;SDS011;918;50.796;6.772;2022-09-12T07:40:23;16.00;;;14.60;;
1837;SDS011;918;50.796;6.772;2022-09-12T07:42:48;15.57;;;14.20;;
1837;SDS011;918;50.796;6.772;2022-09-12T07:45:13;15.60;;;14.10;;
1837;SDS011;918;50.796;6.772;2022-09-12T07:47:39;15.50;;;14.20;;
1837;SDS011;918;50.796;6.772;2022-09-12T07:50:05;15.70;;;14.20;;
1837;SDS011;918;50.796;6.772;2022-09-12T07:52:30;14.63;;;13.33;;
1837;SDS011;918;50.796;6.772;2022-09-12T07:54:56;15.30;;;13.97;;
1837;SDS011;918;50.796;6.772;2022-09-12T07:57:21;14.23;;;12.87;;
1837;SDS011;918;50.796;6.772;2022-09-12T07:59:46;14.20;;;13.10;;
1837;SDS011;918;50.796;6.772;2022-09-12T08:02:11;15.13;;;13.63;;
1837;SDS011;918;50.796;6.772;2022-09-12T08:04:39;13.20;;;12.00;;
1837;SDS011;918;50.796;6.772;2022-09-12T08:07:06;14.73;;;13.20;;
1837;SDS011;918;50.796;6.772;2022-09-12T08:09:31;14.80;;;13.50;;
1837;SDS011;918;50.796;6.772;2022-09-12T08:11:57;14.40;;;13.13;;
1837;SDS011;918;50.796;6.772;2022-09-12T08:14:22;14.60;;;13.10;;
1837;SDS011;918;50.796;6.772;2022-09-12T08:16:48;12.77;;;11.67;;
1837;SDS011;918;50.796;6.772;2022-09-12T08:19:13;18.17;;;13.43;;
1837;SDS011;918;50.796;6.772;2022-09-12T08:21:38;13.87;;;12.47;;
1837;SDS011;918;50.796;6.772;2022-09-12T08:24:04;12.93;;;11.83;;
1837;SDS011;918;50.796;6.772;2022-09-12T08:26:31;13.37;;;12.23;;
1837;SDS011;918;50.796;6.772;2022-09-12T08:28:57;11.83;;;10.93;;
1837;SDS011;918;50.796;6.772;2022-09-12T08:31:24;12.10;;;11.00;;
1837;SDS011;918;50.796;6.772;2022-09-12T08:33:51;12.40;;;11.30;;
1837;SDS011;918;50.796;6.772;2022-09-12T08:36:19;11.67;;;10.70;;
1837;SDS011;918;50.796;6.772;2022-09-12T08:38:47;11.63;;;10.53;;
1837;SDS011;918;50.796;6.772;2022-09-12T08:46:13;10.40;;;9.37;;
1837;SDS011;918;50.796;6.772;2022-09-12T08:48:43;9.53;;;8.73;;
1837;SDS011;918;50.796;6.772;2022-09-12T08:51:09;8.60;;;7.97;;
1837;SDS011;918;50.796;6.772;2022-09-12T08:53:37;8.20;;;7.60;;
1837;SDS011;918;50.796;6.772;2022-09-12T08:56:03;8.93;;;8.13;;
1837;SDS011;918;50.796;6.772;2022-09-12T08:58:30;8.23;;;7.53;;
1837;SDS011;918;50.796;6.772;2022-09-12T09:12:11;7.10;;;6.60;;
1837;SDS011;918;50.796;6.772;2022-09-12T09:14:59;7.43;;;6.60;;
1837;SDS011;918;50.796;6.772;2022-09-12T09:17:32;6.50;;;6.00;;
1837;SDS011;918;50.796;6.772;2022-09-12T09:20:04;5.20;;;4.80;;
1837;SDS011;918;50.796;6.772;2022-09-12T09:25:39;5.90;;;5.00;;
1837;SDS011;918;50.796;6.772;2022-09-12T09:28:01;5.90;;;5.50;;
1837;SDS011;918;50.796;6.772;2022-09-12T09:30:29;5.20;;;4.80;;
1837;SDS011;918;50.796;6.772;2022-09-12T09:32:55;5.30;;;4.80;;
1837;SDS011;918;50.796;6.772;2022-09-12T09:35:28;5.00;;;4.67;;
1837;SDS011;918;50.796;6.772;2022-09-12T09:38:36;5.67;;;5.27;;
1837;SDS011;918;50.796;6.772;2022-09-12T09:41:02;5.43;;;5.07;;
1837;SDS011;918;50.796;6.772;2022-09-12T09:43:30;4.80;;;4.50;;
1837;SDS011;918;50.796;6.772;2022-09-12T09:45:55;5.73;;;5.33;;
1837;SDS011;918;50.796;6.772;2022-09-12T09:48:26;5.17;;;4.67;;
1837;SDS011;918;50.796;6.772;2022-09-12T09:50:53;4.83;;;4.53;;
1837;SDS011;918;50.796;6.772;2022-09-12T09:56:08;4.57;;;4.37;;
1837;SDS011;918;50.796;6.772;2022-09-12T09:58:36;5.77;;;5.27;;
1837;SDS011;918;50.796;6.772;2022-09-12T10:01:13;4.80;;;4.50;;
1837;SDS011;918;50.796;6.772;2022-09-12T10:03:46;5.30;;;4.90;;
1837;SDS011;918;50.796;6.772;2022-09-12T10:08:48;5.10;;;4.80;;
1837;SDS011;918;50.796;6.772;2022-09-12T10:13:40;5.40;;;5.00;;
1837;SDS011;918;50.796;6.772;2022-09-12T10:16:19;5.40;;;4.70;;
1837;SDS011;918;50.796;6.772;2022-09-12T10:18:46;4.80;;;4.50;;
1837;SDS011;918;50.796;6.772;2022-09-12T10:21:14;4.47;;;4.10;;
1837;SDS011;918;50.796;6.772;2022-09-12T10:23:45;4.90;;;4.33;;
1837;SDS011;918;50.796;6.772;2022-09-12T10:26:12;5.07;;;4.67;;
1837;SDS011;918;50.796;6.772;2022-09-12T10:28:40;5.17;;;4.77;;
1837;SDS011;918;50.796;6.772;2022-09-12T10:31:08;4.93;;;4.53;;
1837;SDS011;918;50.796;6.772;2022-09-12T10:33:39;5.20;;;4.90;;
1837;SDS011;918;50.796;6.772;2022-09-12T10:36:07;5.17;;;4.77;;
1837;SDS011;918;50.796;6.772;2022-09-12T10:38:32;4.03;;;3.77;;
1837;SDS011;918;50.796;6.772;2022-09-12T10:41:05;4.17;;;3.97;;
1837;SDS011;918;50.796;6.772;2022-09-12T10:45:58;5.03;;;4.40;;
1837;SDS011;918;50.796;6.772;2022-09-12T10:48:31;4.80;;;4.50;;
1837;SDS011;918;50.796;6.772;2022-09-12T10:50:57;7.50;;;4.57;;
1837;SDS011;918;50.796;6.772;2022-09-12T10:53:24;4.23;;;4.03;;
1837;SDS011;918;50.796;6.772;2022-09-12T11:01:42;4.07;;;3.80;;
1837;SDS011;918;50.796;6.772;2022-09-12T11:04:31;5.00;;;4.60;;
1837;SDS011;918;50.796;6.772;2022-09-12T11:10:12;4.17;;;3.90;;
1837;SDS011;918;50.796;6.772;2022-09-12T11:13:04;4.23;;;3.90;;
1837;SDS011;918;50.796;6.772;2022-09-12T11:15:40;4.37;;;4.00;;
1837;SDS011;918;50.796;6.772;2022-09-12T11:28:42;3.87;;;3.57;;
1837;SDS011;918;50.796;6.772;2022-09-12T11:33:55;4.47;;;4.17;;
1837;SDS011;918;50.796;6.772;2022-09-12T11:36:32;3.93;;;3.70;;
1837;SDS011;918;50.796;6.772;2022-09-12T11:42:24;4.40;;;4.13;;
1837;SDS011;918;50.796;6.772;2022-09-12T11:45:02;4.87;;;4.47;;
1837;SDS011;918;50.796;6.772;2022-09-12T11:47:37;3.87;;;3.57;;
1837;SDS011;918;50.796;6.772;2022-09-12T11:50:05;3.90;;;3.60;;
1837;SDS011;918;50.796;6.772;2022-09-12T11:52:47;3.90;;;3.60;;
1837;SDS011;918;50.796;6.772;2022-09-12T11:55:15;4.10;;;3.90;;
1837;SDS011;918;50.796;6.772;2022-09-12T11:57:43;4.33;;;4.03;;
1837;SDS011;918;50.796;6.772;2022-09-12T12:00:17;4.33;;;4.03;;
1837;SDS011;918;50.796;6.772;2022-09-12T12:05:33;4.93;;;4.60;;
1837;SDS011;918;50.796;6.772;2022-09-12T12:08:04;3.70;;;3.50;;
1837;SDS011;918;50.796;6.772;2022-09-12T12:10:33;3.67;;;3.40;;
1837;SDS011;918;50.796;6.772;2022-09-12T12:13:06;4.40;;;4.10;;
1837;SDS011;918;50.796;6.772;2022-09-12T12:15:34;4.27;;;3.90;;
1837;SDS011;918;50.796;6.772;2022-09-12T12:18:13;4.40;;;4.13;;
1837;SDS011;918;50.796;6.772;2022-09-12T12:20:43;4.60;;;4.20;;
1837;SDS011;918;50.796;6.772;2022-09-12T12:25:58;4.07;;;3.87;;
1837;SDS011;918;50.796;6.772;2022-09-12T12:31:15;4.23;;;4.00;;
1837;SDS011;918;50.796;6.772;2022-09-12T12:36:10;3.70;;;3.50;;
1837;SDS011;918;50.796;6.772;2022-09-12T12:38:54;4.10;;;3.80;;
1837;SDS011;918;50.796;6.772;2022-09-12T12:43:49;4.07;;;3.87;;
1837;SDS011;918;50.796;6.772;2022-09-12T12:46:18;4.17;;;3.87;;
1837;SDS011;918;50.796;6.772;2022-09-12T12:54:31;3.13;;;3.03;;
1837;SDS011;918;50.796;6.772;2022-09-12T12:57:02;6.07;;;3.67;;
1837;SDS011;918;50.796;6.772;2022-09-12T12:59:30;4.63;;;3.73;;
1837;SDS011;918;50.796;6.772;2022-09-12T13:01:56;4.33;;;4.03;;
1837;SDS011;918;50.796;6.772;2022-09-12T13:04:24;4.07;;;3.77;;
1837;SDS011;918;50.796;6.772;2022-09-12T13:06:56;3.63;;;3.43;;
1837;SDS011;918;50.796;6.772;2022-09-12T13:09:26;3.47;;;3.27;;
1837;SDS011;918;50.796;6.772;2022-09-12T13:12:06;3.80;;;3.60;;
1837;SDS011;918;50.796;6.772;2022-09-12T13:20:03;3.60;;;3.30;;
1837;SDS011;918;50.796;6.772;2022-09-12T13:22:37;3.30;;;3.20;;
1837;SDS011;918;50.796;6.772;2022-09-12T13:25:18;3.20;;;3.00;;
1837;SDS011;918;50.796;6.772;2022-09-12T13:30:41;3.07;;;2.87;;
1837;SDS011;918;50.796;6.772;2022-09-12T13:33:18;3.33;;;3.13;;
1837;SDS011;918;50.796;6.772;2022-09-12T13:35:56;3.13;;;2.90;;
1837;SDS011;918;50.796;6.772;2022-09-12T13:41:17;3.80;;;3.47;;
1837;SDS011;918;50.796;6.772;2022-09-12T13:43:48;3.30;;;3.10;;
1837;SDS011;918;50.796;6.772;2022-09-12T13:46:14;3.73;;;3.53;;
1837;SDS011;918;50.796;6.772;2022-09-12T13:48:43;3.77;;;3.47;;
1837;SDS011;918;50.796;6.772;2022-09-12T13:51:12;3.77;;;3.47;;
1837;SDS011;918;50.796;6.772;2022-09-12T13:53:45;4.20;;;4.00;;
1837;SDS011;918;50.796;6.772;2022-09-12T13:56:14;3.33;;;3.03;;
1837;SDS011;918;50.796;6.772;2022-09-12T13:58:50;3.50;;;3.30;;
1837;SDS011;918;50.796;6.772;2022-09-12T14:01:41;3.73;;;3.53;;
1837;SDS011;918;50.796;6.772;2022-09-12T14:04:15;3.40;;;3.20;;
1837;SDS011;918;50.796;6.772;2022-09-12T14:07:00;3.70;;;3.43;;
1837;SDS011;918;50.796;6.772;2022-09-12T14:09:59;3.60;;;3.40;;
1837;SDS011;918;50.796;6.772;2022-09-12T14:12:26;9.10;;;3.70;;
1837;SDS011;918;50.796;6.772;2022-09-12T14:14:54;35.43;;;6.57;;
1837;SDS011;918;50.796;6.772;2022-09-12T14:19:55;7.03;;;3.20;;
1837;SDS011;918;50.796;6.772;2022-09-12T14:22:23;2.77;;;2.57;;
1837;SDS011;918;50.796;6.772;2022-09-12T14:24:51;3.90;;;3.13;;
1837;SDS011;918;50.796;6.772;2022-09-12T14:27:17;3.20;;;3.00;;
1837;SDS011;918;50.796;6.772;2022-09-12T14:29:44;3.63;;;3.33;;
1837;SDS011;918;50.796;6.772;2022-09-12T14:32:23;3.60;;;3.40;;
1837;SDS011;918;50.796;6.772;2022-09-12T14:37:36;3.73;;;3.50;;
1837;SDS011;918;50.796;6.772;2022-09-12T14:40:02;4.47;;;3.10;;
1837;SDS011;918;50.796;6.772;2022-09-12T14:42:30;4.67;;;3.30;;
1837;SDS011;918;50.796;6.772;2022-09-12T14:47:37;4.00;;;3.80;;
1837;SDS011;918;50.796;6.772;2022-09-12T14:50:11;3.40;;;3.10;;
1837;SDS011;918;50.796;6.772;2022-09-12T14:52:39;3.13;;;2.93;;
1837;SDS011;918;50.796;6.772;2022-09-12T14:57:40;2.90;;;2.70;;
1837;SDS011;918;50.796;6.772;2022-09-12T15:02:41;2.00;;;1.90;;
1837;SDS011;918;50.796;6.772;2022-09-12T15:07:36;1.90;;;1.80;;
1837;SDS011;918;50.796;6.772;2022-09-12T15:10:28;1.60;;;1.50;;
1837;SDS011;918;50.796;6.772;2022-09-12T15:15:32;2.97;;;1.97;;
1837;SDS011;918;50.796;6.772;2022-09-12T15:17:57;1.60;;;1.50;;
1837;SDS011;918;50.796;6.772;2022-09-12T15:20:23;1.90;;;1.77;;
1837;SDS011;918;50.796;6.772;2022-09-12T15:22:49;1.73;;;1.63;;
1837;SDS011;918;50.796;6.772;2022-09-12T15:25:14;2.57;;;2.37;;
1837;SDS011;918;50.796;6.772;2022-09-12T15:27:40;2.67;;;2.47;;
1837;SDS011;918;50.796;6.772;2022-09-12T15:30:06;1.70;;;1.60;;
1837;SDS011;918;50.796;6.772;2022-09-12T15:32:32;3.70;;;2.50;;
1837;SDS011;918;50.796;6.772;2022-09-12T15:34:58;2.67;;;2.13;;
1837;SDS011;918;50.796;6.772;2022-09-12T15:37:23;1.70;;;1.60;;
1837;SDS011;918;50.796;6.772;2022-09-12T15:39:49;1.70;;;1.60;;
1837;SDS011;918;50.796;6.772;2022-09-12T15:42:15;1.80;;;1.70;;
1837;SDS011;918;50.796;6.772;2022-09-12T15:44:42;1.77;;;1.77;;
1837;SDS011;918;50.796;6.772;2022-09-12T15:47:08;2.10;;;2.00;;
1837;SDS011;918;50.796;6.772;2022-09-12T15:49:36;2.33;;;1.97;;
1837;SDS011;918;50.796;6.772;2022-09-12T15:52:01;2.27;;;1.67;;
1837;SDS011;918;50.796;6.772;2022-09-12T15:54:27;2.00;;;1.90;;
1837;SDS011;918;50.796;6.772;2022-09-12T15:56:52;1.93;;;1.83;;
1837;SDS011;918;50.796;6.772;2022-09-12T15:59:17;2.53;;;1.67;;
1837;SDS011;918;50.796;6.772;2022-09-12T16:01:43;1.60;;;1.50;;
1837;SDS011;918;50.796;6.772;2022-09-12T16:04:17;1.60;;;1.50;;
1837;SDS011;918;50.796;6.772;2022-09-12T16:06:45;1.67;;;1.60;;
1837;SDS011;918;50.796;6.772;2022-09-12T16:09:10;1.80;;;1.70;;
1837;SDS011;918;50.796;6.772;2022-09-12T16:11:35;1.90;;;1.80;;
1837;SDS011;918;50.796;6.772;2022-09-12T16:14:01;1.73;;;1.63;;
1837;SDS011;918;50.796;6.772;2022-09-12T16:16:28;1.30;;;1.30;;
1837;SDS011;918;50.796;6.772;2022-09-12T16:18:54;1.60;;;1.50;;
1837;SDS011;918;50.796;6.772;2022-09-12T16:21:19;2.00;;;1.60;;
1837;SDS011;918;50.796;6.772;2022-09-12T16:23:45;1.80;;;1.70;;
1837;SDS011;918;50.796;6.772;2022-09-12T16:26:11;1.63;;;1.43;;
1837;SDS011;918;50.796;6.772;2022-09-12T16:28:36;1.90;;;1.80;;
1837;SDS011;918;50.796;6.772;2022-09-12T16:31:02;1.57;;;1.57;;
1837;SDS011;918;50.796;6.772;2022-09-12T16:33:29;1.50;;;1.50;;
1837;SDS011;918;50.796;6.772;2022-09-12T16:36:01;1.87;;;1.77;;
1837;SDS011;918;50.796;6.772;2022-09-12T16:38:29;2.70;;;2.10;;
1837;SDS011;918;50.796;6.772;2022-09-12T16:41:01;1.87;;;1.70;;
1837;SDS011;918;50.796;6.772;2022-09-12T16:43:30;1.80;;;1.70;;
1837;SDS011;918;50.796;6.772;2022-09-12T16:46:02;1.90;;;1.80;;
1837;SDS011;918;50.796;6.772;2022-09-12T16:48:29;2.60;;;2.00;;
1837;SDS011;918;50.796;6.772;2022-09-12T16:50:58;2.60;;;1.70;;
1837;SDS011;918;50.796;6.772;2022-09-12T16:53:26;2.63;;;2.43;;
1837;SDS011;918;50.796;6.772;2022-09-12T16:55:54;2.43;;;2.23;;
1837;SDS011;918;50.796;6.772;2022-09-12T16:58:19;1.90;;;1.80;;
1837;SDS011;918;50.796;6.772;2022-09-12T17:00:44;1.67;;;1.57;;
1837;SDS011;918;50.796;6.772;2022-09-12T17:03:10;2.00;;;1.90;;
1837;SDS011;918;50.796;6.772;2022-09-12T17:05:35;1.73;;;1.63;;
1837;SDS011;918;50.796;6.772;2022-09-12T17:08:01;2.03;;;1.93;;
1837;SDS011;918;50.796;6.772;2022-09-12T17:10:26;2.00;;;1.90;;
1837;SDS011;918;50.796;6.772;2022-09-12T17:12:51;1.97;;;1.87;;
1837;SDS011;918;50.796;6.772;2022-09-12T17:15:17;1.80;;;1.70;;
1837;SDS011;918;50.796;6.772;2022-09-12T17:17:42;3.47;;;2.00;;
1837;SDS011;918;50.796;6.772;2022-09-12T17:20:07;1.70;;;1.60;;
1837;SDS011;918;50.796;6.772;2022-09-12T17:22:33;1.40;;;1.30;;
1837;SDS011;918;50.796;6.772;2022-09-12T17:24:58;1.77;;;1.67;;
1837;SDS011;918;50.796;6.772;2022-09-12T17:27:24;1.40;;;1.40;;
1837;SDS011;918;50.796;6.772;2022-09-12T17:29:49;2.97;;;1.73;;
1837;SDS011;918;50.796;6.772;2022-09-12T17:32:15;1.80;;;1.70;;
1837;SDS011;918;50.796;6.772;2022-09-12T17:34:40;2.03;;;1.90;;
1837;SDS011;918;50.796;6.772;2022-09-12T17:37:05;1.80;;;1.70;;
1837;SDS011;918;50.796;6.772;2022-09-12T17:39:30;1.80;;;1.70;;
1837;SDS011;918;50.796;6.772;2022-09-12T17:41:56;1.90;;;1.80;;
1837;SDS011;918;50.796;6.772;2022-09-12T17:44:23;1.70;;;1.60;;
1837;SDS011;918;50.796;6.772;2022-09-12T17:46:48;1.80;;;1.70;;